sensor_id;sensor_type;location;lat;lon;timestamp;P1;durP1;ratioP1;P2;durP2;ratioP2
39098;SDS011;24844;52.380;7.018;2023-08-24T00:01:42;12.38;;;6.45;;
39098;SDS011;24844;52.380;7.018;2023-08-24T00:04:08;12.10;;;6.80;;
39098;SDS011;24844;52.380;7.018;2023-08-24T00:06:34;8.18;;;6.45;;
39098;SDS011;24844;52.380;7.018;2023-08-24T00:08:59;11.07;;;7.38;;
39098;SDS011;24844;52.380;7.018;2023-08-24T00:11:25;8.77;;;6.35;;
39098;SDS011;24844;52.380;7.018;2023-08-24T00:13:51;9.02;;;6.90;;
39098;SDS011;24844;52.380;7.018;2023-08-24T00:16:17;6.60;;;5.30;;
39098;SDS011;24844;52.380;7.018;2023-08-24T00:18:44;7.80;;;5.65;;
39098;SDS011;24844;52.380;7.018;2023-08-24T00:21:10;7.35;;;5.68;;
39098;SDS011;24844;52.380;7.018;2023-08-24T00:26:04;8.02;;;6.15;;
39098;SDS011;24844;52.380;7.018;2023-08-24T00:28:29;8.05;;;7.10;;
39098;SDS011;24844;52.380;7.018;2023-08-24T00:30:55;9.65;;;6.18;;
39098;SDS011;24844;52.380;7.018;2023-08-24T00:33:21;6.85;;;6.07;;
39098;SDS011;24844;52.380;7.018;2023-08-24T00:35:46;9.35;;;6.00;;
39098;SDS011;24844;52.380;7.018;2023-08-24T00:38:12;9.73;;;6.75;;
39098;SDS011;24844;52.380;7.018;2023-08-24T00:40:38;8.80;;;6.85;;
39098;SDS011;24844;52.380;7.018;2023-08-24T00:43:09;9.80;;;6.60;;
39098;SDS011;24844;52.380;7.018;2023-08-24T00:45:35;8.57;;;6.20;;
39098;SDS011;24844;52.380;7.018;2023-08-24T00:48:01;8.15;;;6.53;;
39098;SDS011;24844;52.380;7.018;2023-08-24T00:50:28;11.30;;;6.72;;
39098;SDS011;24844;52.380;7.018;2023-08-24T00:52:54;10.05;;;6.22;;
39098;SDS011;24844;52.380;7.018;2023-08-24T00:55:20;7.78;;;5.90;;
39098;SDS011;24844;52.380;7.018;2023-08-24T00:57:46;8.93;;;7.55;;
39098;SDS011;24844;52.380;7.018;2023-08-24T01:00:13;10.75;;;7.18;;
39098;SDS011;24844;52.380;7.018;2023-08-24T01:02:41;8.27;;;6.73;;
39098;SDS011;24844;52.380;7.018;2023-08-24T01:05:07;11.40;;;6.80;;
39098;SDS011;24844;52.380;7.018;2023-08-24T01:07:33;7.13;;;6.35;;
39098;SDS011;24844;52.380;7.018;2023-08-24T01:10:02;9.32;;;6.03;;
39098;SDS011;24844;52.380;7.018;2023-08-24T01:15:38;7.28;;;6.22;;
39098;SDS011;24844;52.380;7.018;2023-08-24T01:18:13;8.63;;;6.63;;
39098;SDS011;24844;52.380;7.018;2023-08-24T01:20:42;7.00;;;6.20;;
39098;SDS011;24844;52.380;7.018;2023-08-24T01:25:42;7.85;;;6.95;;
39098;SDS011;24844;52.380;7.018;2023-08-24T01:28:13;7.93;;;6.60;;
39098;SDS011;24844;52.380;7.018;2023-08-24T01:30:40;10.85;;;6.75;;
39098;SDS011;24844;52.380;7.018;2023-08-24T01:33:09;7.53;;;6.43;;
39098;SDS011;24844;52.380;7.018;2023-08-24T01:38:02;8.40;;;6.60;;
39098;SDS011;24844;52.380;7.018;2023-08-24T01:43:13;13.35;;;9.40;;
39098;SDS011;24844;52.380;7.018;2023-08-24T01:45:39;14.00;;;9.82;;
39098;SDS011;24844;52.380;7.018;2023-08-24T01:48:07;11.40;;;9.30;;
39098;SDS011;24844;52.380;7.018;2023-08-24T01:50:35;12.98;;;8.40;;
39098;SDS011;24844;52.380;7.018;2023-08-24T01:53:01;10.32;;;8.20;;
39098;SDS011;24844;52.380;7.018;2023-08-24T01:55:28;12.65;;;8.13;;
39098;SDS011;24844;52.380;7.018;2023-08-24T01:57:55;9.68;;;7.55;;
39098;SDS011;24844;52.380;7.018;2023-08-24T02:00:22;10.07;;;7.10;;
39098;SDS011;24844;52.380;7.018;2023-08-24T02:02:47;11.95;;;8.27;;
39098;SDS011;24844;52.380;7.018;2023-08-24T02:05:13;13.23;;;8.80;;
39098;SDS011;24844;52.380;7.018;2023-08-24T02:07:39;7.78;;;7.03;;
39098;SDS011;24844;52.380;7.018;2023-08-24T02:10:05;9.23;;;7.97;;
39098;SDS011;24844;52.380;7.018;2023-08-24T02:12:31;13.93;;;7.82;;
39098;SDS011;24844;52.380;7.018;2023-08-24T02:14:57;9.73;;;7.18;;
39098;SDS011;24844;52.380;7.018;2023-08-24T02:17:23;9.40;;;7.30;;
39098;SDS011;24844;52.380;7.018;2023-08-24T02:19:49;9.65;;;7.32;;
39098;SDS011;24844;52.380;7.018;2023-08-24T02:22:15;7.60;;;6.63;;
39098;SDS011;24844;52.380;7.018;2023-08-24T02:24:41;11.32;;;7.78;;
39098;SDS011;24844;52.380;7.018;2023-08-24T02:27:06;11.80;;;10.00;;
39098;SDS011;24844;52.380;7.018;2023-08-24T02:29:32;13.85;;;7.28;;
39098;SDS011;24844;52.380;7.018;2023-08-24T02:31:58;10.48;;;7.70;;
39098;SDS011;24844;52.380;7.018;2023-08-24T02:34:23;10.35;;;8.00;;
39098;SDS011;24844;52.380;7.018;2023-08-24T02:36:49;10.07;;;8.27;;
39098;SDS011;24844;52.380;7.018;2023-08-24T02:39:15;9.48;;;7.43;;
39098;SDS011;24844;52.380;7.018;2023-08-24T02:41:41;11.10;;;7.50;;
39098;SDS011;24844;52.380;7.018;2023-08-24T02:44:06;9.82;;;6.88;;
39098;SDS011;24844;52.380;7.018;2023-08-24T02:46:33;10.90;;;7.60;;
39098;SDS011;24844;52.380;7.018;2023-08-24T02:48:59;12.38;;;7.38;;
39098;SDS011;24844;52.380;7.018;2023-08-24T02:51:25;10.57;;;8.35;;
39098;SDS011;24844;52.380;7.018;2023-08-24T02:53:50;10.43;;;8.35;;
39098;SDS011;24844;52.380;7.018;2023-08-24T02:56:16;7.80;;;6.88;;
39098;SDS011;24844;52.380;7.018;2023-08-24T02:58:42;11.55;;;7.30;;
39098;SDS011;24844;52.380;7.018;2023-08-24T03:01:08;9.68;;;7.18;;
39098;SDS011;24844;52.380;7.018;2023-08-24T03:03:34;10.20;;;6.45;;
39098;SDS011;24844;52.380;7.018;2023-08-24T03:06:01;10.10;;;5.60;;
39098;SDS011;24844;52.380;7.018;2023-08-24T03:08:29;7.97;;;6.15;;
39098;SDS011;24844;52.380;7.018;2023-08-24T03:10:56;6.95;;;5.30;;
39098;SDS011;24844;52.380;7.018;2023-08-24T03:13:22;9.00;;;5.40;;
39098;SDS011;24844;52.380;7.018;2023-08-24T03:15:48;7.88;;;6.03;;
39098;SDS011;24844;52.380;7.018;2023-08-24T03:18:15;6.63;;;6.03;;
39098;SDS011;24844;52.380;7.018;2023-08-24T03:20:41;7.95;;;6.45;;
39098;SDS011;24844;52.380;7.018;2023-08-24T03:23:07;7.43;;;5.75;;
39098;SDS011;24844;52.380;7.018;2023-08-24T03:25:36;9.60;;;6.97;;
39098;SDS011;24844;52.380;7.018;2023-08-24T03:28:05;10.40;;;7.82;;
39098;SDS011;24844;52.380;7.018;2023-08-24T03:30:36;9.05;;;6.38;;
39098;SDS011;24844;52.380;7.018;2023-08-24T03:33:03;8.55;;;5.88;;
39098;SDS011;24844;52.380;7.018;2023-08-24T03:35:30;12.55;;;7.05;;
39098;SDS011;24844;52.380;7.018;2023-08-24T03:37:56;9.40;;;6.63;;
39098;SDS011;24844;52.380;7.018;2023-08-24T03:40:22;11.00;;;6.38;;
39098;SDS011;24844;52.380;7.018;2023-08-24T03:42:47;6.97;;;5.75;;
39098;SDS011;24844;52.380;7.018;2023-08-24T03:45:13;8.15;;;5.82;;
39098;SDS011;24844;52.380;7.018;2023-08-24T03:47:38;8.63;;;5.88;;
39098;SDS011;24844;52.380;7.018;2023-08-24T03:50:04;10.38;;;5.90;;
39098;SDS011;24844;52.380;7.018;2023-08-24T03:52:30;8.60;;;5.78;;
39098;SDS011;24844;52.380;7.018;2023-08-24T03:54:57;7.63;;;5.80;;
39098;SDS011;24844;52.380;7.018;2023-08-24T03:57:23;7.57;;;5.97;;
39098;SDS011;24844;52.380;7.018;2023-08-24T03:59:48;9.48;;;6.03;;
39098;SDS011;24844;52.380;7.018;2023-08-24T04:02:14;8.82;;;6.38;;
39098;SDS011;24844;52.380;7.018;2023-08-24T04:04:40;8.93;;;7.10;;
39098;SDS011;24844;52.380;7.018;2023-08-24T04:07:05;7.13;;;5.78;;
39098;SDS011;24844;52.380;7.018;2023-08-24T04:09:31;9.13;;;6.50;;
39098;SDS011;24844;52.380;7.018;2023-08-24T04:11:57;7.88;;;6.30;;
39098;SDS011;24844;52.380;7.018;2023-08-24T04:14:22;6.43;;;5.72;;
39098;SDS011;24844;52.380;7.018;2023-08-24T04:16:48;7.57;;;6.05;;
39098;SDS011;24844;52.380;7.018;2023-08-24T04:19:13;10.88;;;7.57;;
39098;SDS011;24844;52.380;7.018;2023-08-24T04:21:39;7.55;;;6.22;;
39098;SDS011;24844;52.380;7.018;2023-08-24T04:24:05;11.45;;;6.40;;
39098;SDS011;24844;52.380;7.018;2023-08-24T04:26:31;6.53;;;5.85;;
39098;SDS011;24844;52.380;7.018;2023-08-24T04:28:56;7.53;;;5.93;;
39098;SDS011;24844;52.380;7.018;2023-08-24T04:31:22;7.32;;;5.72;;
39098;SDS011;24844;52.380;7.018;2023-08-24T04:33:48;11.05;;;6.30;;
39098;SDS011;24844;52.380;7.018;2023-08-24T04:36:13;11.57;;;6.50;;
39098;SDS011;24844;52.380;7.018;2023-08-24T04:38:39;9.93;;;7.30;;
39098;SDS011;24844;52.380;7.018;2023-08-24T04:41:06;8.80;;;6.53;;
39098;SDS011;24844;52.380;7.018;2023-08-24T04:43:33;7.07;;;5.78;;
39098;SDS011;24844;52.380;7.018;2023-08-24T04:45:59;11.23;;;7.25;;
39098;SDS011;24844;52.380;7.018;2023-08-24T04:48:25;7.40;;;5.88;;
39098;SDS011;24844;52.380;7.018;2023-08-24T04:50:51;11.40;;;6.40;;
39098;SDS011;24844;52.380;7.018;2023-08-24T04:53:21;11.98;;;6.70;;
39098;SDS011;24844;52.380;7.018;2023-08-24T04:55:47;8.18;;;6.13;;
39098;SDS011;24844;52.380;7.018;2023-08-24T04:58:13;10.10;;;6.63;;
39098;SDS011;24844;52.380;7.018;2023-08-24T05:00:39;8.98;;;6.82;;
39098;SDS011;24844;52.380;7.018;2023-08-24T05:03:05;10.98;;;6.43;;
39098;SDS011;24844;52.380;7.018;2023-08-24T05:05:32;7.85;;;6.65;;
39098;SDS011;24844;52.380;7.018;2023-08-24T05:07:59;10.70;;;7.28;;
39098;SDS011;24844;52.380;7.018;2023-08-24T05:10:29;10.00;;;6.93;;
39098;SDS011;24844;52.380;7.018;2023-08-24T05:12:55;7.70;;;6.82;;
39098;SDS011;24844;52.380;7.018;2023-08-24T05:15:21;8.18;;;6.20;;
39098;SDS011;24844;52.380;7.018;2023-08-24T05:17:47;9.60;;;7.07;;
39098;SDS011;24844;52.380;7.018;2023-08-24T05:20:12;10.68;;;7.78;;
39098;SDS011;24844;52.380;7.018;2023-08-24T05:22:38;8.63;;;6.55;;
39098;SDS011;24844;52.380;7.018;2023-08-24T05:25:05;11.95;;;7.63;;
39098;SDS011;24844;52.380;7.018;2023-08-24T05:27:31;9.95;;;8.48;;
39098;SDS011;24844;52.380;7.018;2023-08-24T05:29:57;9.80;;;7.57;;
39098;SDS011;24844;52.380;7.018;2023-08-24T05:32:23;11.68;;;7.45;;
39098;SDS011;24844;52.380;7.018;2023-08-24T05:34:49;10.23;;;7.75;;
39098;SDS011;24844;52.380;7.018;2023-08-24T05:37:15;15.07;;;8.82;;
39098;SDS011;24844;52.380;7.018;2023-08-24T05:39:41;11.55;;;8.20;;
39098;SDS011;24844;52.380;7.018;2023-08-24T05:42:08;11.63;;;7.90;;
39098;SDS011;24844;52.380;7.018;2023-08-24T05:44:34;11.98;;;7.78;;
39098;SDS011;24844;52.380;7.018;2023-08-24T05:46:59;13.07;;;9.30;;
39098;SDS011;24844;52.380;7.018;2023-08-24T05:49:26;12.18;;;8.10;;
39098;SDS011;24844;52.380;7.018;2023-08-24T05:51:52;9.52;;;8.00;;
39098;SDS011;24844;52.380;7.018;2023-08-24T05:54:18;19.30;;;9.50;;
39098;SDS011;24844;52.380;7.018;2023-08-24T05:56:44;12.43;;;10.23;;
39098;SDS011;24844;52.380;7.018;2023-08-24T05:59:10;14.35;;;10.80;;
39098;SDS011;24844;52.380;7.018;2023-08-24T06:01:36;18.15;;;11.70;;
39098;SDS011;24844;52.380;7.018;2023-08-24T06:04:06;14.73;;;11.57;;
39098;SDS011;24844;52.380;7.018;2023-08-24T06:06:32;18.27;;;11.40;;
39098;SDS011;24844;52.380;7.018;2023-08-24T06:08:57;13.00;;;10.50;;
39098;SDS011;24844;52.380;7.018;2023-08-24T06:11:23;26.08;;;15.32;;
39098;SDS011;24844;52.380;7.018;2023-08-24T06:13:49;19.25;;;12.48;;
39098;SDS011;24844;52.380;7.018;2023-08-24T06:16:17;24.50;;;13.20;;
39098;SDS011;24844;52.380;7.018;2023-08-24T06:18:42;15.32;;;11.35;;
39098;SDS011;24844;52.380;7.018;2023-08-24T06:21:09;13.73;;;10.68;;
39098;SDS011;24844;52.380;7.018;2023-08-24T06:23:34;17.20;;;11.63;;
39098;SDS011;24844;52.380;7.018;2023-08-24T06:26:00;12.75;;;10.57;;
39098;SDS011;24844;52.380;7.018;2023-08-24T06:28:26;11.98;;;9.80;;
39098;SDS011;24844;52.380;7.018;2023-08-24T06:30:52;15.32;;;10.18;;
39098;SDS011;24844;52.380;7.018;2023-08-24T06:33:19;17.02;;;11.38;;
39098;SDS011;24844;52.380;7.018;2023-08-24T06:35:45;18.80;;;11.10;;
39098;SDS011;24844;52.380;7.018;2023-08-24T06:38:11;11.70;;;10.38;;
39098;SDS011;24844;52.380;7.018;2023-08-24T06:40:38;14.10;;;9.70;;
39098;SDS011;24844;52.380;7.018;2023-08-24T06:43:04;12.38;;;9.25;;
39098;SDS011;24844;52.380;7.018;2023-08-24T06:45:30;14.00;;;9.70;;
39098;SDS011;24844;52.380;7.018;2023-08-24T06:47:56;10.88;;;9.00;;
39098;SDS011;24844;52.380;7.018;2023-08-24T06:50:22;17.63;;;9.82;;
39098;SDS011;24844;52.380;7.018;2023-08-24T06:52:47;11.82;;;10.63;;
39098;SDS011;24844;52.380;7.018;2023-08-24T06:55:13;14.65;;;12.35;;
39098;SDS011;24844;52.380;7.018;2023-08-24T06:57:39;12.38;;;9.18;;
39098;SDS011;24844;52.380;7.018;2023-08-24T07:00:05;13.18;;;9.35;;
39098;SDS011;24844;52.380;7.018;2023-08-24T07:02:33;14.70;;;11.15;;
39098;SDS011;24844;52.380;7.018;2023-08-24T07:05:00;15.27;;;10.75;;
39098;SDS011;24844;52.380;7.018;2023-08-24T07:07:26;15.52;;;9.98;;
39098;SDS011;24844;52.380;7.018;2023-08-24T07:09:51;11.27;;;9.98;;
39098;SDS011;24844;52.380;7.018;2023-08-24T07:12:17;14.30;;;9.35;;
39098;SDS011;24844;52.380;7.018;2023-08-24T07:14:43;15.57;;;10.93;;
39098;SDS011;24844;52.380;7.018;2023-08-24T07:17:08;13.55;;;10.05;;
39098;SDS011;24844;52.380;7.018;2023-08-24T07:19:35;15.02;;;9.50;;
39098;SDS011;24844;52.380;7.018;2023-08-24T07:22:00;9.02;;;7.47;;
39098;SDS011;24844;52.380;7.018;2023-08-24T07:24:26;14.30;;;9.48;;
39098;SDS011;24844;52.380;7.018;2023-08-24T07:26:53;13.80;;;9.57;;
39098;SDS011;24844;52.380;7.018;2023-08-24T07:29:20;13.57;;;9.45;;
39098;SDS011;24844;52.380;7.018;2023-08-24T07:31:46;17.80;;;10.73;;
39098;SDS011;24844;52.380;7.018;2023-08-24T07:34:12;12.20;;;10.02;;
39098;SDS011;24844;52.380;7.018;2023-08-24T07:36:37;11.70;;;9.05;;
39098;SDS011;24844;52.380;7.018;2023-08-24T07:39:03;12.02;;;7.43;;
39098;SDS011;24844;52.380;7.018;2023-08-24T07:41:29;12.43;;;8.35;;
39098;SDS011;24844;52.380;7.018;2023-08-24T07:43:55;9.65;;;8.15;;
39098;SDS011;24844;52.380;7.018;2023-08-24T07:46:21;9.75;;;6.60;;
39098;SDS011;24844;52.380;7.018;2023-08-24T07:48:46;9.65;;;6.93;;
39098;SDS011;24844;52.380;7.018;2023-08-24T07:51:12;13.57;;;9.18;;
39098;SDS011;24844;52.380;7.018;2023-08-24T07:53:37;7.28;;;5.88;;
39098;SDS011;24844;52.380;7.018;2023-08-24T07:56:03;7.43;;;5.25;;
39098;SDS011;24844;52.380;7.018;2023-08-24T07:58:29;6.32;;;4.95;;
39098;SDS011;24844;52.380;7.018;2023-08-24T08:00:57;8.80;;;4.78;;
39098;SDS011;24844;52.380;7.018;2023-08-24T08:03:23;10.20;;;5.13;;
39098;SDS011;24844;52.380;7.018;2023-08-24T08:05:49;7.72;;;5.05;;
39098;SDS011;24844;52.380;7.018;2023-08-24T08:08:15;6.47;;;5.43;;
39098;SDS011;24844;52.380;7.018;2023-08-24T08:10:41;8.60;;;5.05;;
39098;SDS011;24844;52.380;7.018;2023-08-24T08:13:07;7.88;;;4.68;;
39098;SDS011;24844;52.380;7.018;2023-08-24T08:15:35;9.75;;;4.70;;
39098;SDS011;24844;52.380;7.018;2023-08-24T08:18:03;5.60;;;4.40;;
39098;SDS011;24844;52.380;7.018;2023-08-24T08:20:29;7.82;;;4.65;;
39098;SDS011;24844;52.380;7.018;2023-08-24T08:22:55;8.98;;;3.70;;
39098;SDS011;24844;52.380;7.018;2023-08-24T08:25:21;4.57;;;3.50;;
39098;SDS011;24844;52.380;7.018;2023-08-24T08:27:48;7.40;;;4.25;;
39098;SDS011;24844;52.380;7.018;2023-08-24T08:30:14;5.47;;;3.97;;
39098;SDS011;24844;52.380;7.018;2023-08-24T08:32:45;5.30;;;3.53;;
39098;SDS011;24844;52.380;7.018;2023-08-24T08:35:10;5.38;;;3.55;;
39098;SDS011;24844;52.380;7.018;2023-08-24T08:37:36;4.45;;;3.58;;
39098;SDS011;24844;52.380;7.018;2023-08-24T08:40:05;7.43;;;3.90;;
39098;SDS011;24844;52.380;7.018;2023-08-24T08:42:34;8.35;;;5.57;;
39098;SDS011;24844;52.380;7.018;2023-08-24T08:45:04;6.07;;;3.83;;
39098;SDS011;24844;52.380;7.018;2023-08-24T08:47:34;3.88;;;3.25;;
39098;SDS011;24844;52.380;7.018;2023-08-24T08:49:59;7.30;;;3.42;;
39098;SDS011;24844;52.380;7.018;2023-08-24T08:52:28;5.03;;;3.40;;
39098;SDS011;24844;52.380;7.018;2023-08-24T08:54:54;8.85;;;3.97;;
39098;SDS011;24844;52.380;7.018;2023-08-24T08:57:21;6.95;;;3.15;;
39098;SDS011;24844;52.380;7.018;2023-08-24T08:59:49;5.95;;;3.42;;
39098;SDS011;24844;52.380;7.018;2023-08-24T09:02:17;5.25;;;3.20;;
39098;SDS011;24844;52.380;7.018;2023-08-24T09:04:45;5.63;;;3.45;;
39098;SDS011;24844;52.380;7.018;2023-08-24T09:07:13;7.90;;;3.30;;
39098;SDS011;24844;52.380;7.018;2023-08-24T09:09:39;7.00;;;3.60;;
39098;SDS011;24844;52.380;7.018;2023-08-24T09:12:05;6.50;;;3.53;;
39098;SDS011;24844;52.380;7.018;2023-08-24T09:14:32;5.97;;;3.55;;
39098;SDS011;24844;52.380;7.018;2023-08-24T09:16:58;4.43;;;3.35;;
39098;SDS011;24844;52.380;7.018;2023-08-24T09:19:33;6.03;;;3.97;;
39098;SDS011;24844;52.380;7.018;2023-08-24T09:22:03;6.00;;;3.85;;
39098;SDS011;24844;52.380;7.018;2023-08-24T09:24:33;5.93;;;3.60;;
39098;SDS011;24844;52.380;7.018;2023-08-24T09:27:00;5.40;;;3.08;;
39098;SDS011;24844;52.380;7.018;2023-08-24T09:29:49;5.30;;;3.13;;
39098;SDS011;24844;52.380;7.018;2023-08-24T09:32:23;4.40;;;3.42;;
39098;SDS011;24844;52.380;7.018;2023-08-24T09:34:49;5.22;;;3.60;;
39098;SDS011;24844;52.380;7.018;2023-08-24T09:37:16;5.38;;;3.20;;
39098;SDS011;24844;52.380;7.018;2023-08-24T09:39:42;5.15;;;3.15;;
39098;SDS011;24844;52.380;7.018;2023-08-24T09:42:09;6.40;;;3.28;;
39098;SDS011;24844;52.380;7.018;2023-08-24T09:44:34;4.25;;;2.38;;
39098;SDS011;24844;52.380;7.018;2023-08-24T09:47:01;6.38;;;3.22;;
39098;SDS011;24844;52.380;7.018;2023-08-24T09:49:28;3.83;;;2.20;;
39098;SDS011;24844;52.380;7.018;2023-08-24T09:51:57;4.45;;;2.50;;
39098;SDS011;24844;52.380;7.018;2023-08-24T09:54:26;5.00;;;2.38;;
39098;SDS011;24844;52.380;7.018;2023-08-24T09:56:52;4.95;;;3.30;;
39098;SDS011;24844;52.380;7.018;2023-08-24T09:59:23;4.32;;;2.65;;
39098;SDS011;24844;52.380;7.018;2023-08-24T10:01:52;3.25;;;2.90;;
39098;SDS011;24844;52.380;7.018;2023-08-24T10:04:22;4.55;;;3.20;;
39098;SDS011;24844;52.380;7.018;2023-08-24T10:06:51;8.05;;;3.75;;
39098;SDS011;24844;52.380;7.018;2023-08-24T10:09:25;6.32;;;3.33;;
39098;SDS011;24844;52.380;7.018;2023-08-24T10:12:00;3.78;;;3.10;;
39098;SDS011;24844;52.380;7.018;2023-08-24T10:14:29;7.20;;;3.67;;
39098;SDS011;24844;52.380;7.018;2023-08-24T10:17:00;3.03;;;2.33;;
39098;SDS011;24844;52.380;7.018;2023-08-24T10:19:26;4.40;;;2.88;;
39098;SDS011;24844;52.380;7.018;2023-08-24T10:21:53;4.18;;;2.45;;
39098;SDS011;24844;52.380;7.018;2023-08-24T10:24:22;3.78;;;2.78;;
39098;SDS011;24844;52.380;7.018;2023-08-24T10:26:47;6.43;;;2.72;;
39098;SDS011;24844;52.380;7.018;2023-08-24T10:29:15;3.92;;;2.45;;
39098;SDS011;24844;52.380;7.018;2023-08-24T10:31:41;5.80;;;2.90;;
39098;SDS011;24844;52.380;7.018;2023-08-24T10:34:08;8.32;;;3.15;;
39098;SDS011;24844;52.380;7.018;2023-08-24T10:36:37;6.30;;;2.90;;
39098;SDS011;24844;52.380;7.018;2023-08-24T10:39:06;4.05;;;2.80;;
39098;SDS011;24844;52.380;7.018;2023-08-24T10:41:49;5.50;;;3.08;;
39098;SDS011;24844;52.380;7.018;2023-08-24T10:44:19;4.82;;;2.55;;
39098;SDS011;24844;52.380;7.018;2023-08-24T10:47:05;5.93;;;2.47;;
39098;SDS011;24844;52.380;7.018;2023-08-24T10:49:31;7.50;;;3.22;;
39098;SDS011;24844;52.380;7.018;2023-08-24T10:51:58;4.95;;;2.47;;
39098;SDS011;24844;52.380;7.018;2023-08-24T10:54:45;5.95;;;2.80;;
39098;SDS011;24844;52.380;7.018;2023-08-24T11:07:56;6.90;;;3.20;;
39098;SDS011;24844;52.380;7.018;2023-08-24T11:11:09;4.72;;;2.50;;
39098;SDS011;24844;52.380;7.018;2023-08-24T11:13:12;5.43;;;2.97;;
39098;SDS011;24844;52.380;7.018;2023-08-24T11:15:40;5.05;;;2.70;;
39098;SDS011;24844;52.380;7.018;2023-08-24T11:18:30;7.45;;;3.25;;
39098;SDS011;24844;52.380;7.018;2023-08-24T11:20:56;8.40;;;3.35;;
39098;SDS011;24844;52.380;7.018;2023-08-24T11:23:27;6.68;;;3.00;;
39098;SDS011;24844;52.380;7.018;2023-08-24T11:25:54;5.30;;;2.80;;
39098;SDS011;24844;52.380;7.018;2023-08-24T11:28:22;7.50;;;3.60;;
39098;SDS011;24844;52.380;7.018;2023-08-24T11:30:49;5.10;;;2.92;;
39098;SDS011;24844;52.380;7.018;2023-08-24T11:33:16;5.63;;;3.08;;
39098;SDS011;24844;52.380;7.018;2023-08-24T11:35:43;4.38;;;2.88;;
39098;SDS011;24844;52.380;7.018;2023-08-24T11:38:10;5.35;;;3.33;;
39098;SDS011;24844;52.380;7.018;2023-08-24T11:40:36;7.20;;;4.05;;
39098;SDS011;24844;52.380;7.018;2023-08-24T11:43:02;5.88;;;3.13;;
39098;SDS011;24844;52.380;7.018;2023-08-24T11:45:30;8.88;;;3.65;;
39098;SDS011;24844;52.380;7.018;2023-08-24T11:47:58;6.90;;;3.47;;
39098;SDS011;24844;52.380;7.018;2023-08-24T11:50:25;5.38;;;3.22;;
39098;SDS011;24844;52.380;7.018;2023-08-24T11:52:51;6.30;;;3.00;;
39098;SDS011;24844;52.380;7.018;2023-08-24T11:55:18;4.70;;;3.13;;
39098;SDS011;24844;52.380;7.018;2023-08-24T11:57:45;7.00;;;2.90;;
39098;SDS011;24844;52.380;7.018;2023-08-24T12:00:11;7.75;;;3.20;;
39098;SDS011;24844;52.380;7.018;2023-08-24T12:02:38;4.93;;;2.70;;
39098;SDS011;24844;52.380;7.018;2023-08-24T12:05:08;4.53;;;2.85;;
39098;SDS011;24844;52.380;7.018;2023-08-24T12:07:49;5.70;;;2.63;;
39098;SDS011;24844;52.380;7.018;2023-08-24T12:10:16;3.25;;;2.00;;
39098;SDS011;24844;52.380;7.018;2023-08-24T12:12:42;6.68;;;3.00;;
39098;SDS011;24844;52.380;7.018;2023-08-24T12:15:14;4.78;;;1.98;;
39098;SDS011;24844;52.380;7.018;2023-08-24T12:17:45;3.60;;;2.20;;
39098;SDS011;24844;52.380;7.018;2023-08-24T12:20:18;4.10;;;2.00;;
39098;SDS011;24844;52.380;7.018;2023-08-24T12:22:49;7.90;;;2.20;;
39098;SDS011;24844;52.380;7.018;2023-08-24T12:25:18;3.85;;;2.00;;
39098;SDS011;24844;52.380;7.018;2023-08-24T12:27:47;4.72;;;2.50;;
39098;SDS011;24844;52.380;7.018;2023-08-24T12:30:12;4.32;;;2.08;;
39098;SDS011;24844;52.380;7.018;2023-08-24T12:32:56;4.05;;;1.88;;
39098;SDS011;24844;52.380;7.018;2023-08-24T12:35:22;3.97;;;2.00;;
39098;SDS011;24844;52.380;7.018;2023-08-24T12:37:47;6.53;;;2.00;;
39098;SDS011;24844;52.380;7.018;2023-08-24T12:40:13;5.22;;;2.42;;
39098;SDS011;24844;52.380;7.018;2023-08-24T12:42:39;4.78;;;2.00;;
39098;SDS011;24844;52.380;7.018;2023-08-24T12:45:04;4.05;;;2.05;;
39098;SDS011;24844;52.380;7.018;2023-08-24T12:47:30;3.97;;;1.92;;
39098;SDS011;24844;52.380;7.018;2023-08-24T12:49:56;3.65;;;1.80;;
39098;SDS011;24844;52.380;7.018;2023-08-24T12:52:22;3.45;;;2.30;;
39098;SDS011;24844;52.380;7.018;2023-08-24T12:54:49;3.53;;;2.03;;
39098;SDS011;24844;52.380;7.018;2023-08-24T12:57:16;4.15;;;2.25;;
39098;SDS011;24844;52.380;7.018;2023-08-24T12:59:42;5.33;;;2.43;;
39098;SDS011;24844;52.380;7.018;2023-08-24T13:02:08;3.60;;;2.20;;
39098;SDS011;24844;52.380;7.018;2023-08-24T13:04:33;4.25;;;2.03;;
39098;SDS011;24844;52.380;7.018;2023-08-24T13:06:59;5.13;;;2.30;;
39098;SDS011;24844;52.380;7.018;2023-08-24T13:09:25;4.82;;;2.20;;
39098;SDS011;24844;52.380;7.018;2023-08-24T13:11:51;5.80;;;2.42;;
39098;SDS011;24844;52.380;7.018;2023-08-24T13:14:16;4.20;;;2.03;;
39098;SDS011;24844;52.380;7.018;2023-08-24T13:16:42;5.38;;;2.10;;
39098;SDS011;24844;52.380;7.018;2023-08-24T13:19:07;4.05;;;2.42;;
39098;SDS011;24844;52.380;7.018;2023-08-24T13:21:33;5.50;;;2.33;;
39098;SDS011;24844;52.380;7.018;2023-08-24T13:23:59;4.65;;;2.03;;
39098;SDS011;24844;52.380;7.018;2023-08-24T13:26:24;3.00;;;1.77;;
39098;SDS011;24844;52.380;7.018;2023-08-24T13:28:50;2.58;;;2.08;;
39098;SDS011;24844;52.380;7.018;2023-08-24T13:31:18;5.78;;;2.35;;
39098;SDS011;24844;52.380;7.018;2023-08-24T13:33:44;6.47;;;2.07;;
39098;SDS011;24844;52.380;7.018;2023-08-24T13:36:10;4.72;;;2.00;;
39098;SDS011;24844;52.380;7.018;2023-08-24T13:38:36;4.45;;;1.98;;
39098;SDS011;24844;52.380;7.018;2023-08-24T13:41:02;6.18;;;2.30;;
39098;SDS011;24844;52.380;7.018;2023-08-24T13:43:28;4.28;;;1.73;;
39098;SDS011;24844;52.380;7.018;2023-08-24T13:45:54;4.75;;;2.45;;
39098;SDS011;24844;52.380;7.018;2023-08-24T13:48:20;5.88;;;2.30;;
39098;SDS011;24844;52.380;7.018;2023-08-24T13:50:49;4.13;;;2.25;;
39098;SDS011;24844;52.380;7.018;2023-08-24T13:53:17;3.15;;;1.95;;
39098;SDS011;24844;52.380;7.018;2023-08-24T13:55:42;3.83;;;1.95;;
39098;SDS011;24844;52.380;7.018;2023-08-24T13:58:08;6.47;;;2.33;;
39098;SDS011;24844;52.380;7.018;2023-08-24T14:00:34;4.70;;;2.60;;
39098;SDS011;24844;52.380;7.018;2023-08-24T14:03:03;5.90;;;2.15;;
39098;SDS011;24844;52.380;7.018;2023-08-24T14:05:29;9.70;;;2.90;;
39098;SDS011;24844;52.380;7.018;2023-08-24T14:07:55;4.22;;;2.10;;
39098;SDS011;24844;52.380;7.018;2023-08-24T14:10:20;5.95;;;2.03;;
39098;SDS011;24844;52.380;7.018;2023-08-24T14:12:46;9.10;;;2.58;;
39098;SDS011;24844;52.380;7.018;2023-08-24T14:15:12;3.60;;;2.53;;
39098;SDS011;24844;52.380;7.018;2023-08-24T14:17:38;4.50;;;2.50;;
39098;SDS011;24844;52.380;7.018;2023-08-24T14:20:04;3.63;;;2.30;;
39098;SDS011;24844;52.380;7.018;2023-08-24T14:22:30;6.95;;;2.72;;
39098;SDS011;24844;52.380;7.018;2023-08-24T14:24:56;3.63;;;2.42;;
39098;SDS011;24844;52.380;7.018;2023-08-24T14:27:21;4.65;;;2.72;;
39098;SDS011;24844;52.380;7.018;2023-08-24T14:29:47;3.72;;;2.38;;
39098;SDS011;24844;52.380;7.018;2023-08-24T14:32:13;3.58;;;2.88;;
39098;SDS011;24844;52.380;7.018;2023-08-24T14:34:38;9.15;;;2.72;;
39098;SDS011;24844;52.380;7.018;2023-08-24T14:37:04;6.18;;;2.83;;
39098;SDS011;24844;52.380;7.018;2023-08-24T14:39:30;6.78;;;2.92;;
39098;SDS011;24844;52.380;7.018;2023-08-24T14:41:56;6.93;;;3.03;;
39098;SDS011;24844;52.380;7.018;2023-08-24T14:44:22;5.38;;;2.85;;
39098;SDS011;24844;52.380;7.018;2023-08-24T14:46:47;9.32;;;3.20;;
39098;SDS011;24844;52.380;7.018;2023-08-24T14:49:13;6.07;;;2.97;;
39098;SDS011;24844;52.380;7.018;2023-08-24T14:51:43;6.90;;;3.15;;
39098;SDS011;24844;52.380;7.018;2023-08-24T14:54:09;7.78;;;3.25;;
39098;SDS011;24844;52.380;7.018;2023-08-24T14:56:38;7.10;;;2.75;;
39098;SDS011;24844;52.380;7.018;2023-08-24T14:59:03;8.32;;;4.10;;
39098;SDS011;24844;52.380;7.018;2023-08-24T15:01:29;6.40;;;3.42;;
39098;SDS011;24844;52.380;7.018;2023-08-24T15:03:56;8.07;;;3.03;;
39098;SDS011;24844;52.380;7.018;2023-08-24T15:06:23;4.32;;;3.22;;